createdAt,value
2022-10-13T00:00:18.619Z,52140.86
2022-10-13T00:02:50.609Z,52158.14
2022-10-13T00:05:22.044Z,52147.69
2022-10-13T00:07:53.443Z,52146.49
2022-10-13T00:10:24.902Z,52150.51
2022-10-13T00:12:56.264Z,52144.08
2022-10-13T00:15:27.903Z,52167.38
2022-10-13T00:17:59.716Z,52166.98
2022-10-13T00:20:31.510Z,52135.24
2022-10-13T00:23:01.554Z,52163.77
2022-10-13T00:25:32.890Z,52163.77
2022-10-13T00:28:04.238Z,52162.57
2022-10-13T00:30:40.104Z,52150.51
2022-10-13T00:33:11.876Z,52151.31
2022-10-13T00:35:45.080Z,52164.98
2022-10-13T00:38:19.723Z,52148.90
2022-10-13T00:40:51.960Z,52152.12
2022-10-13T00:43:24.209Z,52156.54
2022-10-13T00:45:55.682Z,52163.37
2022-10-13T00:48:29.854Z,52155.73
2022-10-13T00:51:01.300Z,52161.36
2022-10-13T00:53:34.406Z,52169.39
2022-10-13T00:56:05.932Z,52170.60
2022-10-13T00:58:37.439Z,52163.77
2022-10-13T01:01:09.043Z,52159.35
2022-10-13T01:03:40.712Z,52169.39
2022-10-13T01:06:12.927Z,52165.38
2022-10-13T01:08:44.337Z,52153.32
2022-10-13T01:11:31.629Z,52164.57
2022-10-13T01:14:04.376Z,52162.16
2022-10-13T01:16:41.211Z,52171.00
2022-10-13T01:19:22.430Z,52167.39
2022-10-13T01:21:56.916Z,52166.98
2022-10-13T01:24:44.594Z,52177.84
2022-10-13T01:27:39.266Z,52172.61
2022-10-13T01:30:15.897Z,52189.49
2022-10-13T01:33:07.378Z,52167.79
2022-10-13T01:35:45.762Z,52179.04
2022-10-13T01:38:21.700Z,52165.78
2022-10-13T01:40:57.079Z,52173.01
2022-10-13T01:43:29.484Z,52179.44
2022-10-13T01:46:02.058Z,52167.79
2022-10-13T01:48:33.430Z,52174.22
2022-10-13T01:51:04.956Z,52181.85
2022-10-13T01:53:36.684Z,52190.29
2022-10-13T01:56:06.781Z,52177.03
2022-10-13T01:58:38.390Z,52181.85
2022-10-13T02:01:15.705Z,52173.41
2022-10-13T02:03:53.328Z,52173.82
2022-10-13T02:06:26.324Z,52183.86
2022-10-13T02:09:01.305Z,52185.47
2022-10-13T02:11:32.849Z,52179.84
2022-10-13T02:14:05.688Z,52189.09
2022-10-13T02:16:40.025Z,52179.84
2022-10-13T02:19:13.533Z,52193.91
2022-10-13T02:21:44.927Z,52189.09
2022-10-13T02:24:16.751Z,52188.68
2022-10-13T02:26:48.190Z,52185.07
2022-10-13T02:29:23.825Z,52209.18
2022-10-13T02:31:55.223Z,52200.74
2022-10-13T02:34:27.087Z,52185.87
2022-10-13T02:36:58.635Z,52192.30
2022-10-13T02:39:30.150Z,52182.25
2022-10-13T02:42:01.536Z,52188.68
2022-10-13T02:44:32.988Z,52199.94
2022-10-13T02:47:04.805Z,52189.89
2022-10-13T02:49:36.530Z,52203.55
2022-10-13T02:52:06.534Z,52213.20
2022-10-13T02:54:38.014Z,52191.90
2022-10-13T02:57:07.973Z,52204.76
2022-10-13T02:59:39.706Z,52199.53
2022-10-13T03:02:09.512Z,52206.36
2022-10-13T03:04:40.931Z,52194.31
2022-10-13T03:07:12.629Z,52211.19
2022-10-13T03:09:42.414Z,52216.01
2022-10-13T03:12:13.840Z,52195.12
2022-10-13T03:14:45.341Z,52203.55
2022-10-13T03:17:17.056Z,52189.49
2022-10-13T03:19:46.756Z,52214.80
2022-10-13T03:22:21.788Z,52193.10
2022-10-13T03:24:56.804Z,52209.98
2022-10-13T03:27:28.355Z,52212.80
2022-10-13T03:29:59.822Z,52209.58
2022-10-13T03:32:32.789Z,52203.15
2022-10-13T03:35:04.380Z,52205.96
2022-10-13T03:37:35.813Z,52192.30
2022-10-13T03:40:09.377Z,52201.95
2022-10-13T03:42:40.747Z,52200.34
2022-10-13T03:45:13.233Z,52203.95
2022-10-13T03:47:44.935Z,52207.17
2022-10-13T03:50:14.664Z,52218.82
2022-10-13T03:52:46.238Z,52198.33
2022-10-13T03:55:17.910Z,52208.38
2022-10-13T03:57:49.866Z,52199.13
2022-10-13T04:00:21.784Z,52195.52
2022-10-13T04:02:53.642Z,52213.20
2022-10-13T04:05:26.710Z,52199.54
2022-10-13T04:07:58.390Z,52223.24
2022-10-13T04:10:31.892Z,52214.80
2022-10-13T04:13:03.423Z,52207.17
2022-10-13T04:15:34.903Z,52209.58
2022-10-13T04:18:06.753Z,52222.04
2022-10-13T04:20:41.500Z,52208.77
2022-10-13T04:23:12.773Z,52215.61
2022-10-13T04:25:46.737Z,52226.46
2022-10-13T04:28:18.139Z,52210.79
2022-10-13T04:30:49.798Z,52203.15
2022-10-13T04:33:21.356Z,52216.82
2022-10-13T04:35:52.761Z,52207.17
2022-10-13T04:38:24.221Z,52211.59
2022-10-13T04:40:55.539Z,52209.98
2022-10-13T04:43:30.325Z,52201.95
2022-10-13T04:46:08.291Z,52209.98
2022-10-13T04:48:39.668Z,52194.71
2022-10-13T04:51:12.399Z,52207.97
2022-10-13T04:53:44.012Z,52195.92
2022-10-13T04:56:17.690Z,52206.77
2022-10-13T04:58:49.237Z,52211.99
2022-10-13T05:01:22.117Z,52200.34
2022-10-13T05:03:55.589Z,52186.27
2022-10-13T05:06:28.440Z,52199.13
2022-10-13T05:09:03.102Z,52185.46
2022-10-13T05:11:34.913Z,52175.02
2022-10-13T05:14:06.363Z,52188.29
2022-10-13T05:16:38.274Z,52188.68
2022-10-13T05:19:08.197Z,52172.61
2022-10-13T05:21:40.370Z,52187.88
2022-10-13T05:24:13.934Z,52164.57
2022-10-13T05:26:46.205Z,52175.82
2022-10-13T05:29:15.941Z,52179.04
2022-10-13T05:31:47.854Z,52171.00
2022-10-13T05:34:17.639Z,52166.18
2022-10-13T05:36:49.309Z,52176.23
2022-10-13T05:39:20.764Z,52171.00
2022-10-13T05:41:50.929Z,52162.16
2022-10-13T05:44:25.475Z,52169.39
2022-10-13T05:47:05.001Z,52160.96
2022-10-13T05:49:40.046Z,52159.35
2022-10-13T05:52:12.676Z,52174.62
2022-10-13T05:54:44.930Z,52159.35
2022-10-13T05:57:18.924Z,52164.17
2022-10-13T05:59:52.521Z,52156.54
2022-10-13T06:02:24.552Z,52162.96
2022-10-13T06:04:57.057Z,52148.50
2022-10-13T06:07:29.060Z,52160.55
2022-10-13T06:10:00.759Z,52144.08
2022-10-13T06:12:32.285Z,52142.88
2022-10-13T06:15:03.945Z,52142.47
2022-10-13T06:17:35.415Z,52146.89
2022-10-13T06:20:08.052Z,52148.50
2022-10-13T06:22:39.738Z,52134.43
2022-10-13T06:25:10.797Z,52144.48
2022-10-13T06:27:42.545Z,52137.65
2022-10-13T06:30:14.920Z,52144.88
2022-10-13T06:32:46.531Z,52142.47
2022-10-13T06:35:16.544Z,52144.08
2022-10-13T06:37:49.059Z,52140.46
2022-10-13T06:40:21.059Z,52139.26
2022-10-13T06:42:56.593Z,52137.24
2022-10-13T06:45:28.695Z,52130.01
2022-10-13T06:48:00.363Z,52136.84
2022-10-13T06:50:32.572Z,52119.57
2022-10-13T06:53:04.357Z,52101.08
2022-10-13T06:55:36.171Z,52110.32
2022-10-13T06:58:07.879Z,52123.98
2022-10-13T07:00:39.569Z,52115.55
2022-10-13T07:03:12.135Z,52113.54
2022-10-13T07:05:43.800Z,52120.77
2022-10-13T07:08:16.315Z,52100.68
2022-10-13T07:10:49.250Z,52118.36
2022-10-13T07:15:53.850Z,52110.32
2022-10-13T07:18:24.121Z,52102.29
2022-10-13T07:20:56.080Z,52102.29
2022-10-13T07:23:25.780Z,52090.63
2022-10-13T07:25:57.997Z,52093.04
2022-10-13T07:28:29.582Z,52090.23
2022-10-13T07:31:01.227Z,52078.98
2022-10-13T07:33:32.756Z,52108.31
2022-10-13T07:36:02.951Z,52093.45
2022-10-13T07:38:34.366Z,52098.67
2022-10-13T07:41:04.560Z,52094.65
2022-10-13T07:43:36.179Z,52068.93
2022-10-13T07:46:09.713Z,52079.38
2022-10-13T07:48:41.119Z,52080.99
2022-10-13T07:51:13.468Z,52086.21
2022-10-13T07:53:46.964Z,52074.56
2022-10-13T07:56:18.775Z,52083.40
2022-10-13T07:58:48.818Z,52070.14
2022-10-13T08:01:20.737Z,52072.55
2022-10-13T08:03:52.255Z,52058.89
2022-10-13T08:06:24.515Z,52079.79
2022-10-13T08:09:00.931Z,52052.05
2022-10-13T08:11:32.999Z,52051.65
2022-10-13T08:14:03.080Z,52054.07
2022-10-13T08:16:35.358Z,52055.67
2022-10-13T08:19:07.006Z,52049.24
2022-10-13T08:24:30.936Z,52037.19
2022-10-13T08:27:03.099Z,52036.38
2022-10-13T08:29:33.157Z,52027.54
2022-10-13T08:32:03.600Z,52023.52
2022-10-13T08:34:34.380Z,52026.74
2022-10-13T08:37:04.315Z,52031.16
2022-10-13T08:39:34.242Z,52018.30
2022-10-13T08:42:05.033Z,52021.11
2022-10-13T08:47:29.613Z,52008.25
2022-10-13T08:50:02.893Z,52021.52
2022-10-13T08:52:43.833Z,52001.02
2022-10-13T08:55:15.240Z,52009.86
2022-10-13T08:57:45.668Z,52007.45
2022-10-13T09:00:16.249Z,51989.37
2022-10-13T09:02:50.069Z,51999.82
2022-10-13T09:05:23.668Z,51981.33
2022-10-13T09:07:55.025Z,51984.15
2022-10-13T09:10:25.420Z,51990.98
2022-10-13T09:12:56.245Z,51978.92
2022-10-13T09:15:26.325Z,51978.12
2022-10-13T09:18:09.026Z,51984.54
2022-10-13T09:20:38.811Z,51997.80
2022-10-13T09:23:11.431Z,51999.41
2022-10-13T09:25:42.526Z,51991.38
2022-10-13T09:28:13.092Z,51979.73
2022-10-13T09:30:47.090Z,51986.96
2022-10-13T09:33:26.221Z,52001.82
2022-10-13T09:36:11.363Z,51987.36
2022-10-13T09:38:41.124Z,51996.60
2022-10-13T09:41:14.952Z,52000.21
2022-10-13T09:43:45.188Z,52008.65
2022-10-13T09:46:24.330Z,51990.57
2022-10-13T09:48:55.024Z,51988.97
2022-10-13T09:51:33.933Z,51998.21
2022-10-13T09:54:25.097Z,52001.02
2022-10-13T09:56:55.321Z,52013.07
2022-10-13T09:59:28.931Z,52007.85
2022-10-13T10:01:58.757Z,52004.64
2022-10-13T10:04:31.508Z,52015.49
2022-10-13T10:07:01.437Z,52012.27
2022-10-13T10:09:36.401Z,51999.02
2022-10-13T10:12:06.381Z,52002.23
2022-10-13T10:14:36.452Z,51984.14
2022-10-13T10:17:08.842Z,51991.38
2022-10-13T10:19:48.143Z,52005.04
2022-10-13T10:22:20.924Z,51987.76
2022-10-13T10:24:52.521Z,52015.89
2022-10-13T10:27:23.083Z,51998.61
2022-10-13T10:29:55.245Z,51999.81
2022-10-13T10:32:28.783Z,52005.84
2022-10-13T10:34:59.884Z,51988.16
2022-10-13T10:37:39.320Z,52003.03
2022-10-13T10:40:13.149Z,52005.04
2022-10-13T10:42:52.304Z,51997.40
2022-10-13T10:45:23.005Z,52003.84
2022-10-13T10:47:53.308Z,51986.96
2022-10-13T10:50:24.846Z,51988.16
2022-10-13T10:52:57.635Z,51975.30
2022-10-13T10:55:31.209Z,51973.30
2022-10-13T10:58:03.984Z,51982.54
2022-10-13T11:00:37.433Z,51986.96
2022-10-13T11:03:09.658Z,52000.22
2022-10-13T11:05:56.697Z,51982.54
2022-10-13T11:08:30.634Z,51986.16
2022-10-13T11:11:18.023Z,51989.77
2022-10-13T11:13:57.629Z,51988.96
2022-10-13T11:16:29.530Z,52018.70
2022-10-13T11:19:28.347Z,51997.41
2022-10-13T11:22:24.904Z,51996.20
2022-10-13T11:25:00.476Z,51982.14
2022-10-13T11:27:44.187Z,51968.48
2022-10-13T11:30:31.968Z,51954.41
2022-10-13T11:33:09.436Z,51957.63
2022-10-13T11:35:39.086Z,51971.68
2022-10-13T11:38:18.216Z,51954.81
2022-10-13T11:40:58.799Z,51962.85
2022-10-13T11:43:31.781Z,51928.29
2022-10-13T11:46:21.294Z,51938.74
2022-10-13T11:48:58.647Z,51963.65
2022-10-13T11:51:33.081Z,51959.23
2022-10-13T11:54:07.531Z,51970.08
2022-10-13T11:56:39.680Z,51928.29
2022-10-13T11:59:20.711Z,51945.97
2022-10-13T12:01:50.656Z,51931.51
2022-10-13T12:04:23.048Z,51908.60
2022-10-13T12:06:55.810Z,51913.82
2022-10-13T12:09:25.952Z,51934.72
2022-10-13T12:11:59.663Z,51888.91
2022-10-13T12:14:31.608Z,51929.09
2022-10-13T12:17:02.019Z,51964.45
2022-10-13T12:19:33.248Z,51976.51
2022-10-13T12:22:03.274Z,51970.08
2022-10-13T12:24:33.201Z,51960.84
2022-10-13T12:27:04.013Z,51996.20
2022-10-13T12:29:37.294Z,51992.98
2022-10-13T12:32:19.735Z,51986.96
2022-10-13T12:34:50.277Z,51998.21
2022-10-13T12:37:23.002Z,51993.39
2022-10-13T12:39:52.924Z,51994.99
2022-10-13T12:42:24.021Z,52002.23
2022-10-13T12:44:53.630Z,52010.66
2022-10-13T12:47:39.724Z,52015.48
2022-10-13T12:50:33.033Z,52024.32
2022-10-13T12:53:07.275Z,52026.74
2022-10-13T12:55:36.941Z,52021.12
2022-10-13T12:58:06.805Z,52013.88
2022-10-13T13:00:36.874Z,52011.47
2022-10-13T13:03:08.557Z,51980.53
2022-10-13T13:05:41.545Z,52013.88
2022-10-13T13:08:23.934Z,51983.74
2022-10-13T13:10:56.979Z,51988.97
2022-10-13T13:13:26.732Z,51971.29
2022-10-13T13:15:56.453Z,51950.39
2022-10-13T13:18:39.652Z,51912.62
2022-10-13T13:21:09.596Z,51917.04
2022-10-13T13:23:41.811Z,51897.35
2022-10-13T13:26:15.397Z,51883.29
2022-10-13T13:28:46.273Z,51873.64
2022-10-13T13:31:16.148Z,51870.02
2022-10-13T13:33:46.271Z,51883.29
2022-10-13T13:36:19.606Z,51881.27
2022-10-13T13:38:50.119Z,51876.05
2022-10-13T13:41:20.154Z,51887.70
2022-10-13T13:43:49.903Z,51883.29
2022-10-13T13:46:20.176Z,51887.30
2022-10-13T13:48:49.918Z,51881.68
2022-10-13T13:51:20.271Z,51892.13
2022-10-13T13:53:50.884Z,51901.77
2022-10-13T13:56:21.140Z,51897.75
2022-10-13T13:58:50.835Z,51920.65
2022-10-13T14:01:20.488Z,51903.77
2022-10-13T14:03:50.224Z,51933.52
2022-10-13T14:06:21.587Z,51916.64
2022-10-13T14:08:52.537Z,51940.75
2022-10-13T14:11:22.392Z,51941.15
2022-10-13T14:13:52.011Z,51929.09
2022-10-13T14:16:30.027Z,51944.36
2022-10-13T14:19:00.826Z,51971.69
2022-10-13T14:21:30.741Z,51971.29
2022-10-13T14:24:00.507Z,51974.10
2022-10-13T14:26:30.561Z,51984.14
2022-10-13T14:29:00.728Z,51980.13
2022-10-13T14:31:30.962Z,51991.38
2022-10-13T14:34:00.735Z,52001.42
2022-10-13T14:36:30.845Z,52012.27
2022-10-13T14:39:01.516Z,51992.59
2022-10-13T14:41:32.607Z,52002.63
2022-10-13T14:44:02.567Z,52013.48
2022-10-13T14:46:32.367Z,52011.46
2022-10-13T14:49:02.083Z,52033.17
2022-10-13T14:51:33.080Z,52030.36
2022-10-13T14:54:04.773Z,52034.37
2022-10-13T14:56:34.801Z,52043.21
2022-10-13T14:59:06.253Z,52050.45
2022-10-13T15:01:42.099Z,52040.00
2022-10-13T15:04:11.774Z,52047.23
2022-10-13T15:06:41.655Z,52056.07
2022-10-13T15:09:13.081Z,52068.53
2022-10-13T15:11:42.837Z,52048.44
2022-10-13T15:14:12.537Z,52066.52
2022-10-13T15:16:42.451Z,52054.87
2022-10-13T15:19:12.156Z,52060.09
2022-10-13T15:21:42.265Z,52066.52
2022-10-13T15:24:12.691Z,52072.15
2022-10-13T15:26:45.477Z,52072.15
2022-10-13T15:29:15.170Z,52077.77
2022-10-13T15:31:44.872Z,52081.39
2022-10-13T15:34:14.649Z,52085.01
2022-10-13T15:36:44.331Z,52083.40
2022-10-13T15:39:14.202Z,52090.63
2022-10-13T15:41:43.881Z,52087.42
2022-10-13T15:44:14.028Z,52080.18
2022-10-13T15:49:34.888Z,52068.13
2022-10-13T15:51:55.321Z,52080.59
2022-10-13T15:52:04.612Z,52079.78
2022-10-13T15:54:36.036Z,52091.44
2022-10-13T15:57:05.789Z,52082.20
2022-10-13T15:59:36.062Z,52088.62
2022-10-13T16:02:05.882Z,52094.65
2022-10-13T16:04:37.638Z,52090.63
2022-10-13T16:07:07.810Z,52099.07
2022-10-13T16:09:37.541Z,52109.12
2022-10-13T16:12:07.801Z,52106.30
2022-10-13T16:14:40.133Z,52098.67
2022-10-13T16:17:09.964Z,52095.45
2022-10-13T16:19:39.686Z,52102.68
2022-10-13T16:22:09.415Z,52113.54
2022-10-13T16:24:39.729Z,52101.48
2022-10-13T16:27:10.604Z,52085.41
2022-10-13T16:29:40.435Z,52088.22
2022-10-13T16:32:10.246Z,52101.48
2022-10-13T16:34:40.019Z,52098.27
2022-10-13T16:37:09.750Z,52096.66
2022-10-13T16:39:42.718Z,52109.92
2022-10-13T16:42:14.644Z,52093.04
2022-10-13T16:44:44.624Z,52109.92
2022-10-13T16:47:18.441Z,52117.55
2022-10-13T16:49:49.029Z,52110.32
2022-10-13T16:52:19.700Z,52116.75
2022-10-13T16:54:50.504Z,52097.46
2022-10-13T16:57:21.334Z,52119.16
2022-10-13T16:59:52.185Z,52102.69
2022-10-13T17:02:22.584Z,52107.11
2022-10-13T17:04:52.251Z,52110.73
2022-10-13T17:07:22.838Z,52129.61
2022-10-13T17:09:52.778Z,52107.11
2022-10-13T17:12:22.632Z,52108.32
2022-10-13T17:14:52.399Z,52113.94
2022-10-13T17:17:22.447Z,52108.71
2022-10-13T17:19:53.008Z,52127.60
2022-10-13T17:22:22.956Z,52126.80
2022-10-13T17:24:52.597Z,52132.83
2022-10-13T17:27:22.640Z,52132.82
2022-10-13T17:29:55.083Z,52120.77
2022-10-13T17:32:24.955Z,52126.80
2022-10-13T17:34:55.014Z,52123.99
2022-10-13T17:37:25.039Z,52116.75
2022-10-13T17:39:54.729Z,52119.57
2022-10-13T17:42:24.337Z,52148.50
2022-10-13T17:44:54.316Z,52123.18
2022-10-13T17:47:24.205Z,52146.89
2022-10-13T17:49:56.083Z,52121.18
2022-10-13T17:52:26.913Z,52120.37
2022-10-13T17:54:57.578Z,52141.66
2022-10-13T17:57:32.342Z,52120.77
2022-10-13T18:00:05.550Z,52151.31
2022-10-13T18:02:42.165Z,52140.06
2022-10-13T18:05:12.301Z,52135.24
2022-10-13T18:07:42.078Z,52129.21
2022-10-13T18:10:13.277Z,52137.65
2022-10-13T18:12:43.109Z,52126.40
2022-10-13T18:15:13.045Z,52136.84
2022-10-13T18:17:43.221Z,52136.85
2022-10-13T18:20:13.541Z,52136.45
2022-10-13T18:22:45.072Z,52142.88
2022-10-13T18:25:15.240Z,52136.04
2022-10-13T18:27:45.027Z,52148.50
2022-10-13T18:30:19.968Z,52141.67
2022-10-13T18:32:52.203Z,52137.25
2022-10-13T18:35:21.950Z,52138.46
2022-10-13T18:37:52.943Z,52156.54
2022-10-13T18:40:23.218Z,52137.65
2022-10-13T18:42:54.871Z,52132.43
2022-10-13T18:45:25.399Z,52138.86
2022-10-13T18:47:55.307Z,52133.23
2022-10-13T18:50:25.184Z,52142.88
2022-10-13T18:52:54.982Z,52144.08
2022-10-13T18:55:24.977Z,52149.71
2022-10-13T18:57:56.032Z,52144.08
2022-10-13T19:00:26.365Z,52126.80
2022-10-13T19:02:56.542Z,52158.95
2022-10-13T19:05:26.488Z,52127.60
2022-10-13T19:07:59.976Z,52148.10
2022-10-13T19:10:30.040Z,52140.06
2022-10-13T19:12:59.913Z,52149.70
2022-10-13T19:15:31.746Z,52148.90
2022-10-13T19:18:02.714Z,52129.61
2022-10-13T19:20:32.389Z,52154.93
2022-10-13T19:23:07.708Z,52165.78
2022-10-13T19:25:42.412Z,52157.74
2022-10-13T19:28:13.015Z,52160.55
2022-10-13T19:30:43.203Z,52155.73
2022-10-13T19:33:13.515Z,52158.55
2022-10-13T19:35:51.792Z,52156.54
2022-10-13T19:38:21.906Z,52154.13
2022-10-13T19:40:53.007Z,52151.30
2022-10-13T19:43:23.273Z,52158.14
2022-10-13T19:45:59.747Z,52152.52
2022-10-13T19:48:30.027Z,52148.90
2022-10-13T19:51:00.503Z,52157.34
2022-10-13T19:53:30.758Z,52148.10
2022-10-13T19:56:01.480Z,52152.92
2022-10-13T19:58:31.489Z,52152.92
2022-10-13T20:01:04.843Z,52153.32
2022-10-13T20:03:34.657Z,52150.11
2022-10-13T20:06:06.475Z,52155.73
2022-10-13T20:08:41.141Z,52160.96
2022-10-13T20:11:11.525Z,52137.65
2022-10-13T20:13:41.261Z,52156.54
2022-10-13T20:16:13.743Z,52138.86
2022-10-13T20:18:43.625Z,52150.91
2022-10-13T20:21:13.721Z,52161.36
2022-10-13T20:23:43.728Z,52154.93
2022-10-13T20:26:14.150Z,52156.94
2022-10-13T20:28:44.474Z,52162.16
2022-10-13T20:31:14.594Z,52159.35
2022-10-13T20:33:44.406Z,52158.54
2022-10-13T20:36:14.722Z,52153.32
2022-10-13T20:38:44.457Z,52180.25
2022-10-13T20:41:18.071Z,52160.55
2022-10-13T20:43:47.919Z,52154.52
2022-10-13T20:46:18.061Z,52154.13
2022-10-13T20:51:37.917Z,52158.95
2022-10-13T20:54:08.175Z,52142.47
2022-10-13T20:56:38.110Z,52157.74
2022-10-13T20:59:10.078Z,52155.73
2022-10-13T21:01:39.972Z,52156.54
2022-10-13T21:04:09.703Z,52160.15
2022-10-13T21:06:39.438Z,52161.76
2022-10-13T21:09:09.322Z,52157.34
2022-10-13T21:11:40.261Z,52171.00
2022-10-13T21:14:10.669Z,52155.33
2022-10-13T21:16:40.446Z,52171.80
2022-10-13T21:19:15.377Z,52170.20
2022-10-13T21:21:45.214Z,52171.00
2022-10-13T21:24:14.942Z,77264.19
2022-10-13T21:26:44.692Z,52165.38
2022-10-13T21:29:17.742Z,52165.78
2022-10-13T21:31:47.446Z,64717.95
2022-10-13T21:34:17.299Z,66845.60
2022-10-13T21:36:47.101Z,-1.00
2022-10-13T21:39:17.176Z,-1.00
2022-10-13T21:41:46.891Z,-1.00
2022-10-13T21:44:16.618Z,-1.00
2022-10-13T21:46:46.414Z,-1.00
2022-10-13T21:49:16.128Z,-1.00
2022-10-13T21:51:45.907Z,-1.00
2022-10-13T21:54:16.160Z,-1.00
2022-10-13T21:56:45.981Z,-1.00
2022-10-13T21:59:16.082Z,-1.00
2022-10-13T22:01:45.722Z,-1.00
2022-10-13T22:04:15.579Z,-1.00
2022-10-13T22:06:45.424Z,-1.00
2022-10-13T22:09:15.322Z,-1.00
2022-10-13T22:11:45.071Z,-1.00
2022-10-13T22:14:14.853Z,-1.00
2022-10-13T22:16:45.202Z,-1.00
2022-10-13T22:19:15.054Z,-1.00
2022-10-13T22:21:45.360Z,-1.00
2022-10-13T22:24:15.940Z,-1.00
2022-10-13T22:26:45.979Z,-1.00
2022-10-13T22:29:16.379Z,-1.00
2022-10-13T22:31:46.192Z,-1.00
2022-10-13T22:34:16.010Z,-1.00
2022-10-13T22:36:45.770Z,-1.00
2022-10-13T22:39:15.995Z,-1.00
2022-10-13T22:41:46.306Z,-1.00
2022-10-13T22:44:16.645Z,-1.00
2022-10-13T22:46:46.548Z,-1.00
2022-10-13T22:49:16.780Z,-1.00
2022-10-13T22:51:46.648Z,-1.00
2022-10-13T22:54:16.429Z,-1.00
2022-10-13T22:56:46.298Z,-1.00
2022-10-13T22:59:15.989Z,-1.00
2022-10-13T23:01:45.978Z,-1.00
2022-10-13T23:04:15.787Z,-1.00
2022-10-13T23:06:45.689Z,-1.00
2022-10-13T23:09:15.434Z,-1.00
2022-10-13T23:11:45.325Z,-1.00
2022-10-13T23:14:21.021Z,-1.00
2022-10-13T23:16:51.315Z,-1.00
2022-10-13T23:19:21.284Z,-1.00
2022-10-13T23:21:50.990Z,-1.00
2022-10-13T23:24:20.870Z,-1.00
2022-10-13T23:26:50.938Z,-1.00
2022-10-13T23:29:20.985Z,-1.00
2022-10-13T23:31:50.852Z,-1.00
2022-10-13T23:34:20.752Z,-1.00
2022-10-13T23:36:51.687Z,-1.00
2022-10-13T23:39:21.421Z,-1.00
2022-10-13T23:41:51.466Z,-1.00
2022-10-13T23:44:22.736Z,-1.00
2022-10-13T23:46:53.227Z,-1.00
2022-10-13T23:49:24.283Z,-1.00
2022-10-13T23:51:54.028Z,-1.00
2022-10-13T23:54:23.747Z,-1.00
2022-10-13T23:56:53.575Z,-1.00
2022-10-13T23:59:23.409Z,-1.00
